createdAt,value
2019-05-29T00:00:15.345Z,94437.84
2019-05-29T00:02:43.953Z,94430.67
2019-05-29T00:05:12.854Z,94435.61
2019-05-29T00:07:41.594Z,94438.47
2019-05-29T00:10:10.895Z,94442.99
2019-05-29T00:12:39.701Z,94447.17
2019-05-29T00:15:08.445Z,94445.36
2019-05-29T00:17:37.253Z,94450.08
2019-05-29T00:20:08.315Z,94439.82
2019-05-29T00:22:37.001Z,94445.41
2019-05-29T00:25:10.611Z,94448.58
2019-05-29T00:27:39.226Z,94448.45
2019-05-29T00:30:08.856Z,94443.70
2019-05-29T00:32:38.279Z,94448.75
2019-05-29T00:35:08.671Z,94454.08
2019-05-29T00:37:37.286Z,94454.53
2019-05-29T00:40:08.955Z,94454.20
2019-05-29T00:42:37.826Z,94459.21
2019-05-29T00:45:09.330Z,94461.32
2019-05-29T00:47:38.234Z,94467.31
2019-05-29T00:50:09.821Z,94457.44
2019-05-29T00:52:38.885Z,94456.30
2019-05-29T00:55:08.727Z,94465.02
2019-05-29T00:57:37.758Z,94455.22
2019-05-29T01:00:09.040Z,94452.20
2019-05-29T01:02:37.841Z,94450.66
2019-05-29T01:05:07.370Z,94453.71
2019-05-29T01:07:35.919Z,94448.43
2019-05-29T01:10:10.598Z,94453.11
2019-05-29T01:12:39.538Z,94462.53
2019-05-29T01:15:08.581Z,94463.36
2019-05-29T01:17:37.047Z,94477.16
2019-05-29T01:20:07.520Z,94472.86
2019-05-29T01:22:36.284Z,94474.00
2019-05-29T01:25:06.382Z,94474.45
2019-05-29T01:27:35.044Z,94471.80
2019-05-29T01:30:04.761Z,94471.73
2019-05-29T01:32:33.361Z,94477.31
2019-05-29T01:35:01.895Z,94481.98
2019-05-29T01:37:30.360Z,94491.03
2019-05-29T01:39:58.899Z,94496.05
2019-05-29T01:42:27.772Z,94492.95
2019-05-29T01:45:07.187Z,94490.28
2019-05-29T01:47:28.040Z,94492.39
2019-05-29T01:49:57.169Z,94497.52
2019-05-29T01:52:25.762Z,94491.11
2019-05-29T01:54:54.250Z,94499.14
2019-05-29T01:57:23.784Z,94492.20
2019-05-29T01:59:52.536Z,94495.10
2019-05-29T02:02:21.962Z,94495.10
2019-05-29T02:04:50.768Z,94489.52
2019-05-29T02:07:19.979Z,94492.41
2019-05-29T02:09:48.696Z,94491.97
2019-05-29T02:12:19.316Z,94497.43
2019-05-29T02:14:47.706Z,94497.84
2019-05-29T02:17:17.670Z,94500.41
2019-05-29T02:19:46.320Z,94496.11
2019-05-29T02:22:14.932Z,94500.78
2019-05-29T02:24:43.586Z,94499.05
2019-05-29T02:27:14.207Z,94501.58
2019-05-29T02:29:42.702Z,94509.69
2019-05-29T02:32:11.378Z,94514.85
2019-05-29T02:34:39.989Z,94524.21
2019-05-29T02:37:08.520Z,94524.70
2019-05-29T02:39:37.085Z,94529.65
2019-05-29T02:42:05.855Z,94537.58
2019-05-29T02:44:34.458Z,94542.06
2019-05-29T02:47:03.085Z,94536.03
2019-05-29T02:49:31.557Z,94542.06
2019-05-29T02:52:00.384Z,94551.00
2019-05-29T02:54:30.047Z,94557.21
2019-05-29T02:56:59.196Z,94559.70
2019-05-29T02:59:29.645Z,94555.48
2019-05-29T03:01:58.068Z,94559.26
2019-05-29T03:04:28.063Z,94563.48
2019-05-29T03:06:56.794Z,94562.58
2019-05-29T03:09:26.581Z,94577.02
2019-05-29T03:12:00.045Z,94579.55
2019-05-29T03:14:27.220Z,94579.55
2019-05-29T03:16:56.177Z,94575.84
2019-05-29T03:19:25.973Z,94577.58
2019-05-29T03:21:57.409Z,94587.69
2019-05-29T03:24:26.660Z,94589.70
2019-05-29T03:26:58.727Z,94582.84
2019-05-29T03:29:28.161Z,94588.38
2019-05-29T03:31:57.951Z,94589.17
2019-05-29T03:34:30.420Z,94595.28
2019-05-29T03:36:56.841Z,94603.91
2019-05-29T03:39:26.354Z,94601.42
2019-05-29T03:41:55.247Z,94607.45
2019-05-29T03:44:23.937Z,94603.95
2019-05-29T03:46:52.468Z,94618.33
2019-05-29T03:49:21.092Z,94621.61
2019-05-29T03:51:49.552Z,94624.41
2019-05-29T03:54:18.105Z,94621.28
2019-05-29T03:56:46.685Z,94623.70
2019-05-29T03:59:15.313Z,94622.69
2019-05-29T04:01:43.857Z,94629.74
2019-05-29T04:04:12.555Z,94636.50
2019-05-29T04:06:41.206Z,94639.22
2019-05-29T04:09:09.695Z,94644.91
2019-05-29T04:11:39.240Z,94645.89
2019-05-29T04:14:07.854Z,94646.95
2019-05-29T04:16:57.796Z,94648.03
2019-05-29T04:19:07.276Z,94651.39
2019-05-29T04:21:38.622Z,94651.77
2019-05-29T04:24:07.564Z,94659.39
2019-05-29T04:26:40.831Z,94661.31
2019-05-29T04:29:10.463Z,94661.98
2019-05-29T04:31:39.442Z,94664.36
2019-05-29T04:34:08.004Z,94667.34
2019-05-29T04:36:36.947Z,94662.20
2019-05-29T04:39:07.525Z,94666.06
2019-05-29T04:41:37.038Z,94666.02
2019-05-29T04:44:06.146Z,94671.11
2019-05-29T04:46:36.420Z,94667.14
2019-05-29T04:49:05.001Z,94667.81
2019-05-29T04:51:35.431Z,94672.71
2019-05-29T04:54:04.029Z,94669.94
2019-05-29T04:56:32.829Z,94677.81
2019-05-29T04:59:01.628Z,94684.91
2019-05-29T05:01:30.878Z,94682.96
2019-05-29T05:03:59.650Z,94678.02
2019-05-29T05:06:29.129Z,94679.88
2019-05-29T05:08:57.939Z,94681.37
2019-05-29T05:11:26.541Z,94688.80
2019-05-29T05:13:55.636Z,94687.20
2019-05-29T05:16:24.113Z,94697.19
2019-05-29T05:18:52.720Z,94698.26
2019-05-29T05:21:21.365Z,94706.05
2019-05-29T05:23:49.896Z,94706.06
2019-05-29T05:26:18.549Z,94709.56
2019-05-29T05:28:47.393Z,94713.45
2019-05-29T05:31:16.133Z,94715.23
2019-05-29T05:33:44.666Z,94715.30
2019-05-29T05:36:13.255Z,94716.12
2019-05-29T05:38:41.794Z,94712.23
2019-05-29T05:41:10.625Z,94713.47
2019-05-29T05:43:39.186Z,94717.09
2019-05-29T05:46:07.855Z,94714.45
2019-05-29T05:48:37.156Z,94715.80
2019-05-29T05:51:05.852Z,94714.32
2019-05-29T05:53:35.443Z,94716.67
2019-05-29T05:56:04.072Z,94719.36
2019-05-29T05:58:33.755Z,94719.58
2019-05-29T06:01:02.302Z,94730.29
2019-05-29T06:03:31.799Z,94726.86
2019-05-29T06:06:00.764Z,94735.69
2019-05-29T06:08:29.302Z,94732.13
2019-05-29T06:10:57.918Z,94738.89
2019-05-29T06:13:26.516Z,94735.39
2019-05-29T06:15:55.182Z,94741.02
2019-05-29T06:18:23.856Z,94744.11
2019-05-29T06:20:52.423Z,94742.91
2019-05-29T06:23:20.987Z,94742.45
2019-05-29T06:25:49.574Z,94745.80
2019-05-29T06:28:18.410Z,94741.94
2019-05-29T06:30:47.026Z,94744.11
2019-05-29T06:33:15.612Z,94752.62
2019-05-29T06:35:44.140Z,94756.38
2019-05-29T06:38:12.761Z,94760.62
2019-05-29T06:40:44.042Z,94755.92
2019-05-29T06:43:23.974Z,94760.32
2019-05-29T06:45:53.621Z,94767.23
2019-05-29T06:48:42.439Z,94770.70
2019-05-29T06:50:58.179Z,94769.88
2019-05-29T06:53:26.971Z,94773.59
2019-05-29T06:55:57.709Z,94774.78
2019-05-29T06:58:26.269Z,94778.59
2019-05-29T07:00:54.877Z,94784.95
2019-05-29T07:03:23.529Z,94784.17
2019-05-29T07:05:52.926Z,94788.94
2019-05-29T07:08:37.563Z,94793.67
2019-05-29T07:10:53.527Z,94797.09
2019-05-29T07:13:22.262Z,94797.09
2019-05-29T07:15:50.902Z,94806.12
2019-05-29T07:18:19.543Z,94805.66
2019-05-29T07:20:48.090Z,94806.48
2019-05-29T07:23:16.781Z,94808.70
2019-05-29T07:25:45.779Z,94807.67
2019-05-29T07:28:14.948Z,94818.14
2019-05-29T07:30:49.708Z,94820.92
2019-05-29T07:33:15.564Z,94816.27
2019-05-29T07:35:45.587Z,94818.80
2019-05-29T07:38:14.244Z,94829.50
2019-05-29T07:40:45.100Z,94832.59
2019-05-29T07:43:15.373Z,94832.22
2019-05-29T07:45:44.136Z,94844.20
2019-05-29T07:48:13.078Z,94849.69
2019-05-29T07:50:42.225Z,94855.16
2019-05-29T07:53:11.036Z,94857.65
2019-05-29T07:55:40.411Z,94864.06
2019-05-29T07:58:09.343Z,94863.27
2019-05-29T08:01:02.606Z,94864.05
2019-05-29T08:03:08.358Z,94869.91
2019-05-29T08:05:36.901Z,94877.11
2019-05-29T08:08:05.582Z,94877.99
2019-05-29T08:10:34.265Z,94884.80
2019-05-29T08:13:02.897Z,94887.70
2019-05-29T08:15:31.526Z,94893.45
2019-05-29T08:18:00.143Z,94900.67
2019-05-29T08:20:28.819Z,94903.92
2019-05-29T08:22:57.557Z,94900.79
2019-05-29T08:25:26.190Z,94909.52
2019-05-29T08:27:54.748Z,94912.81
2019-05-29T08:30:23.595Z,94919.63
2019-05-29T08:32:52.148Z,94916.55
2019-05-29T08:35:20.836Z,94921.25
2019-05-29T08:37:49.360Z,94920.70
2019-05-29T08:40:17.966Z,94923.03
2019-05-29T08:42:47.401Z,94920.87
2019-05-29T08:45:16.494Z,94925.16
2019-05-29T08:47:45.591Z,94933.67
2019-05-29T08:50:18.546Z,94935.30
2019-05-29T08:52:46.027Z,94937.53
2019-05-29T08:55:15.118Z,94941.98
2019-05-29T08:57:44.328Z,94945.77
2019-05-29T09:00:14.077Z,94941.48
2019-05-29T09:02:44.799Z,94946.88
2019-05-29T09:05:13.661Z,94947.34
2019-05-29T09:07:43.329Z,94953.95
2019-05-29T09:10:13.138Z,94956.44
2019-05-29T09:12:45.931Z,94963.75
2019-05-29T09:15:12.614Z,94966.89
2019-05-29T09:17:41.124Z,94973.91
2019-05-29T09:20:27.254Z,94969.17
2019-05-29T09:22:41.562Z,94977.97
2019-05-29T09:25:10.496Z,94974.39
2019-05-29T09:27:39.040Z,94976.00
2019-05-29T09:30:08.177Z,94980.75
2019-05-29T09:32:49.640Z,94983.78
2019-05-29T09:35:07.398Z,94992.35
2019-05-29T09:37:38.513Z,94993.64
2019-05-29T09:40:09.979Z,94997.92
2019-05-29T09:42:38.587Z,94992.89
2019-05-29T09:45:07.519Z,95000.73
2019-05-29T09:47:36.091Z,95015.45
2019-05-29T09:50:07.100Z,95012.70
2019-05-29T09:52:36.029Z,95022.23
2019-05-29T09:55:06.672Z,95017.23
2019-05-29T09:57:35.298Z,95023.76
2019-05-29T10:00:05.649Z,95022.97
2019-05-29T10:02:34.261Z,95021.80
2019-05-29T10:05:04.138Z,95024.05
2019-05-29T10:07:33.079Z,95026.05
2019-05-29T10:10:03.675Z,95027.28
2019-05-29T10:12:32.011Z,95033.35
2019-05-29T10:15:00.957Z,95037.81
2019-05-29T10:17:30.880Z,95044.92
2019-05-29T10:20:00.678Z,95047.50
2019-05-29T10:22:29.420Z,95048.62
2019-05-29T10:24:58.733Z,95057.00
2019-05-29T10:27:28.299Z,95057.62
2019-05-29T10:29:56.910Z,95057.34
2019-05-29T10:32:25.451Z,95052.47
2019-05-29T10:34:54.063Z,95055.27
2019-05-29T10:37:22.596Z,95054.55
2019-05-29T10:39:52.991Z,95057.30
2019-05-29T10:42:21.720Z,95055.06
2019-05-29T10:44:51.311Z,95055.89
2019-05-29T10:47:20.379Z,95061.70
2019-05-29T10:49:49.756Z,95063.44
2019-05-29T10:52:18.519Z,95071.12
2019-05-29T10:54:48.112Z,95077.90
2019-05-29T10:57:16.906Z,95078.69
2019-05-29T10:59:46.561Z,95076.11
2019-05-29T11:02:15.503Z,95086.78
2019-05-29T11:04:48.902Z,95079.97
2019-05-29T11:07:14.570Z,95081.98
2019-05-29T11:09:44.828Z,95088.81
2019-05-29T11:12:13.397Z,95086.59
2019-05-29T11:14:41.843Z,95096.16
2019-05-29T11:17:10.429Z,95079.66
2019-05-29T11:19:38.968Z,95092.02
2019-05-29T11:22:25.206Z,95088.70
2019-05-29T11:24:37.826Z,95093.59
2019-05-29T11:27:06.635Z,95099.63
2019-05-29T11:29:35.235Z,95092.69
2019-05-29T11:32:03.852Z,95102.00
2019-05-29T11:34:33.187Z,95109.69
2019-05-29T11:37:02.495Z,95105.42
2019-05-29T11:39:31.235Z,95109.15
2019-05-29T11:41:59.846Z,95107.34
2019-05-29T11:44:28.445Z,95106.38
2019-05-29T11:46:58.182Z,95100.47
2019-05-29T11:49:26.955Z,95106.81
2019-05-29T11:52:18.806Z,95115.72
2019-05-29T11:54:25.775Z,95108.80
2019-05-29T11:56:55.466Z,95110.77
2019-05-29T11:59:24.343Z,95114.93
2019-05-29T12:01:54.738Z,95116.37
2019-05-29T12:04:26.600Z,95120.73
2019-05-29T12:06:55.333Z,95130.16
2019-05-29T12:09:32.956Z,95118.75
2019-05-29T12:11:55.975Z,95130.79
2019-05-29T12:14:24.830Z,95136.16
2019-05-29T12:16:54.163Z,95140.03
2019-05-29T12:19:23.483Z,95142.61
2019-05-29T12:21:52.345Z,95150.58
2019-05-29T12:24:21.120Z,95149.42
2019-05-29T12:26:49.815Z,95145.59
2019-05-29T12:29:18.398Z,95151.05
2019-05-29T12:31:47.019Z,95148.55
2019-05-29T12:34:19.126Z,95157.62
2019-05-29T12:36:46.202Z,95161.44
2019-05-29T12:39:14.727Z,95166.27
2019-05-29T12:41:43.203Z,95170.73
2019-05-29T12:44:11.743Z,95181.16
2019-05-29T12:46:40.392Z,95186.94
2019-05-29T12:49:08.968Z,95187.12
2019-05-29T12:51:37.504Z,95189.17
2019-05-29T12:54:06.183Z,95195.58
2019-05-29T12:56:34.741Z,95193.88
2019-05-29T12:59:04.632Z,95189.61
2019-05-29T13:01:33.514Z,95186.70
2019-05-29T13:04:02.446Z,95193.13
2019-05-29T13:06:31.227Z,95198.72
2019-05-29T13:09:00.507Z,95200.13
2019-05-29T13:11:29.191Z,95202.21
2019-05-29T13:13:58.435Z,95212.84
2019-05-29T13:16:27.181Z,95209.17
2019-05-29T13:18:56.985Z,95204.35
2019-05-29T13:21:25.703Z,95210.80
2019-05-29T13:23:54.312Z,95215.08
2019-05-29T13:26:22.908Z,95210.89
2019-05-29T13:28:51.468Z,95216.83
2019-05-29T13:31:21.735Z,95215.58
2019-05-29T13:33:50.297Z,95223.42
2019-05-29T13:36:18.836Z,95231.44
2019-05-29T13:38:47.475Z,95231.09
2019-05-29T13:41:17.732Z,95230.37
2019-05-29T13:43:46.321Z,95235.53
2019-05-29T13:46:14.925Z,95240.39
2019-05-29T13:48:43.440Z,95240.75
2019-05-29T13:51:11.975Z,95236.82
2019-05-29T13:53:40.600Z,95231.59
2019-05-29T13:56:09.115Z,95231.21
2019-05-29T13:58:37.577Z,95236.38
2019-05-29T14:01:06.428Z,95252.70
2019-05-29T14:03:35.108Z,95251.48
2019-05-29T14:06:05.435Z,95251.09
2019-05-29T14:08:34.134Z,95252.77
2019-05-29T14:11:03.477Z,95264.41
2019-05-29T14:13:32.338Z,95264.44
2019-05-29T14:16:02.266Z,95260.59
2019-05-29T14:18:31.379Z,95257.66
2019-05-29T14:21:03.019Z,95256.40
2019-05-29T14:23:31.699Z,95260.23
2019-05-29T14:26:00.433Z,95259.53
2019-05-29T14:28:29.217Z,95254.83
2019-05-29T14:30:57.770Z,95257.34
2019-05-29T14:33:26.401Z,95260.28
2019-05-29T14:35:54.932Z,95261.22
2019-05-29T14:38:23.576Z,95263.08
2019-05-29T14:40:52.237Z,95269.03
2019-05-29T14:43:20.734Z,95265.58
2019-05-29T14:45:49.358Z,95267.67
2019-05-29T14:48:17.905Z,95270.80
2019-05-29T14:50:46.462Z,95269.59
2019-05-29T14:53:15.047Z,95278.94
2019-05-29T14:55:43.797Z,95273.34
2019-05-29T14:58:12.267Z,95273.25
2019-05-29T15:00:40.872Z,95279.22
2019-05-29T15:03:09.557Z,95282.23
2019-05-29T15:05:38.224Z,95291.20
2019-05-29T15:08:07.993Z,95292.48
2019-05-29T15:10:36.787Z,95301.39
2019-05-29T15:13:06.518Z,95297.59
2019-05-29T15:15:35.362Z,95302.77
2019-05-29T15:18:04.884Z,95305.95
2019-05-29T15:20:33.675Z,95301.67
2019-05-29T15:23:02.295Z,95303.38
2019-05-29T15:25:31.188Z,95304.98
2019-05-29T15:27:59.800Z,95316.62
2019-05-29T15:30:28.375Z,95314.42
2019-05-29T15:32:57.023Z,95317.42
2019-05-29T15:35:25.634Z,95319.16
2019-05-29T15:37:54.248Z,95315.70
2019-05-29T15:40:22.849Z,95316.53
2019-05-29T15:42:51.396Z,95315.24
2019-05-29T15:45:21.755Z,95307.16
2019-05-29T15:47:50.366Z,95316.50
2019-05-29T15:50:19.165Z,95312.30
2019-05-29T15:52:47.761Z,95310.56
2019-05-29T15:55:28.565Z,95311.94
2019-05-29T15:57:47.076Z,95317.64
2019-05-29T16:00:17.848Z,95320.25
2019-05-29T16:02:49.061Z,95328.41
2019-05-29T16:05:19.182Z,95330.53
2019-05-29T16:07:47.879Z,95329.77
2019-05-29T16:10:20.134Z,95334.16
2019-05-29T16:12:47.616Z,95328.69
2019-05-29T16:15:17.606Z,95341.97
2019-05-29T16:17:46.253Z,95334.28
2019-05-29T16:20:16.352Z,95335.54
2019-05-29T16:22:45.150Z,95332.89
2019-05-29T16:25:16.997Z,95330.26
2019-05-29T16:27:45.766Z,95330.34
2019-05-29T16:30:15.677Z,95333.83
2019-05-29T16:32:44.316Z,95328.33
2019-05-29T16:35:15.036Z,95327.05
2019-05-29T16:37:43.746Z,95333.06
2019-05-29T16:40:16.132Z,95333.52
2019-05-29T16:42:44.993Z,95327.18
2019-05-29T16:45:14.476Z,95323.38
2019-05-29T16:47:43.174Z,95324.26
2019-05-29T16:50:13.039Z,95324.27
2019-05-29T16:52:41.586Z,95326.45
2019-05-29T16:55:11.126Z,95343.58
2019-05-29T16:57:39.584Z,95338.45
2019-05-29T17:00:10.485Z,95351.27
2019-05-29T17:02:39.900Z,95358.27
2019-05-29T17:05:09.464Z,95359.94
2019-05-29T17:07:38.080Z,95366.78
2019-05-29T17:10:07.979Z,95359.11
2019-05-29T17:12:36.442Z,95374.87
2019-05-29T17:15:12.455Z,95377.94
2019-05-29T17:17:41.057Z,95379.70
2019-05-29T17:20:10.855Z,95375.91
2019-05-29T17:22:39.423Z,95383.59
2019-05-29T17:25:08.750Z,95393.80
2019-05-29T17:27:37.326Z,95389.57
2019-05-29T17:30:07.996Z,95393.05
2019-05-29T17:32:36.855Z,95389.70
2019-05-29T17:35:07.180Z,95392.28
2019-05-29T17:37:35.852Z,95393.56
2019-05-29T17:40:06.651Z,95402.53
2019-05-29T17:42:35.214Z,95402.12
2019-05-29T17:45:05.428Z,95408.11
2019-05-29T17:47:34.082Z,95408.09
2019-05-29T17:50:02.739Z,95416.62
2019-05-29T17:52:31.487Z,95411.48
2019-05-29T17:55:00.026Z,95412.70
2019-05-29T17:57:28.657Z,95420.44
2019-05-29T17:59:57.361Z,95418.80
2019-05-29T18:02:26.346Z,95422.31
2019-05-29T18:04:56.107Z,95424.06
2019-05-29T18:07:24.816Z,95427.06
2019-05-29T18:09:53.515Z,95436.48
2019-05-29T18:12:22.967Z,95433.09
2019-05-29T18:14:51.683Z,95440.78
2019-05-29T18:17:21.314Z,95438.72
2019-05-29T18:19:50.227Z,95439.95
2019-05-29T18:22:19.543Z,95444.67
2019-05-29T18:24:48.441Z,95441.69
2019-05-29T18:27:17.925Z,95444.67
2019-05-29T18:29:46.654Z,95446.81
2019-05-29T18:32:15.197Z,95449.41
2019-05-29T18:34:43.891Z,95445.14
2019-05-29T18:37:12.483Z,95444.31
2019-05-29T18:39:41.326Z,95447.75
2019-05-29T18:42:09.795Z,95443.52
2019-05-29T18:44:38.346Z,95442.70
2019-05-29T18:47:06.924Z,95442.27
2019-05-29T18:49:35.470Z,95441.88
2019-05-29T18:52:04.072Z,95447.93
2019-05-29T18:54:33.169Z,95449.23
2019-05-29T18:57:14.381Z,95459.47
2019-05-29T18:59:32.144Z,95457.75
2019-05-29T19:02:00.826Z,95464.59
2019-05-29T19:04:29.909Z,95473.55
2019-05-29T19:06:58.607Z,95474.38
2019-05-29T19:09:27.827Z,95475.67
2019-05-29T19:11:56.644Z,95486.80
2019-05-29T19:14:25.818Z,95488.91
2019-05-29T19:16:54.637Z,95497.04
2019-05-29T19:19:24.037Z,95500.48
2019-05-29T19:21:52.832Z,95500.04
2019-05-29T19:24:22.527Z,95506.88
2019-05-29T19:26:51.399Z,95512.45
2019-05-29T19:29:20.084Z,95515.02
2019-05-29T19:31:48.548Z,95522.73
2019-05-29T19:34:17.221Z,95526.19
2019-05-29T19:36:45.763Z,95530.47
2019-05-29T19:39:14.375Z,95525.31
2019-05-29T19:41:43.294Z,95518.95
2019-05-29T19:44:11.899Z,95521.91
2019-05-29T19:46:53.101Z,95520.19
2019-05-29T19:49:10.904Z,95526.59
2019-05-29T19:51:39.556Z,95530.47
2019-05-29T19:54:08.159Z,95536.44
2019-05-29T19:56:36.770Z,95532.20
2019-05-29T19:59:05.374Z,95533.52
2019-05-29T20:01:37.488Z,95537.77
2019-05-29T20:04:04.876Z,95536.48
2019-05-29T20:06:35.266Z,95546.28
2019-05-29T20:09:05.542Z,95549.28
2019-05-29T20:11:34.009Z,95547.16
2019-05-29T20:14:02.571Z,95540.33
2019-05-29T20:16:34.170Z,95542.92
2019-05-29T20:19:02.865Z,95547.23
2019-05-29T20:21:32.733Z,95539.56
2019-05-29T20:24:01.548Z,95542.11
2019-05-29T20:26:30.899Z,95550.19
2019-05-29T20:28:59.591Z,95546.80
2019-05-29T20:31:28.391Z,95549.35
2019-05-29T20:33:56.926Z,95547.67
2019-05-29T20:36:25.456Z,95558.75
2019-05-29T20:38:54.489Z,95549.41
2019-05-29T20:41:23.206Z,95553.23
2019-05-29T20:43:51.729Z,95554.55
2019-05-29T20:46:20.301Z,95557.52
2019-05-29T20:48:48.894Z,95555.40
2019-05-29T20:51:17.425Z,95557.56
2019-05-29T20:53:48.199Z,95556.77
2019-05-29T20:56:16.465Z,95552.94
2019-05-29T20:58:45.067Z,95553.38
2019-05-29T21:01:13.788Z,95550.02
2019-05-29T21:03:42.668Z,95548.34
2019-05-29T21:06:11.666Z,95547.51
2019-05-29T21:08:41.148Z,95550.51
2019-05-29T21:11:10.072Z,95562.45
2019-05-29T21:13:39.484Z,95564.57
2019-05-29T21:16:08.408Z,95568.81
2019-05-29T21:18:37.860Z,95571.80
2019-05-29T21:21:06.690Z,95574.36
2019-05-29T21:23:36.939Z,95570.56
2019-05-29T21:26:06.168Z,95572.25
2019-05-29T21:28:40.895Z,95568.01
2019-05-29T21:31:05.115Z,95573.97
2019-05-29T21:33:33.648Z,95576.12
2019-05-29T21:36:02.270Z,95575.68
2019-05-29T21:38:30.833Z,95574.36
2019-05-29T21:40:59.360Z,95572.25
2019-05-29T21:43:27.897Z,95570.53
2019-05-29T21:45:56.461Z,95578.20
2019-05-29T21:48:25.004Z,95578.64
2019-05-29T21:50:53.611Z,95584.20
2019-05-29T21:53:22.201Z,95579.52
2019-05-29T21:55:50.848Z,95589.75
2019-05-29T21:58:19.464Z,95582.52
2019-05-29T22:00:50.896Z,95582.95
2019-05-29T22:03:19.971Z,95582.52
2019-05-29T22:05:48.947Z,95581.64
2019-05-29T22:08:17.648Z,95581.23
2019-05-29T22:10:46.247Z,95581.27
2019-05-29T22:13:14.888Z,95586.39
2019-05-29T22:15:43.471Z,95590.19
2019-05-29T22:18:12.109Z,95592.78
2019-05-29T22:20:40.733Z,95592.78
2019-05-29T22:23:09.387Z,95595.34
2019-05-29T22:25:37.835Z,95593.22
2019-05-29T22:28:06.434Z,95592.78
2019-05-29T22:30:35.318Z,95589.39
2019-05-29T22:33:03.917Z,95591.11
2019-05-29T22:35:32.518Z,95584.27
2019-05-29T22:38:01.849Z,95582.15
2019-05-29T22:40:30.990Z,95580.87
2019-05-29T22:42:59.892Z,95583.84
2019-05-29T22:45:28.625Z,95584.27
2019-05-29T22:47:59.888Z,95580.08
2019-05-29T22:50:28.730Z,95583.47
2019-05-29T22:52:58.456Z,95580.11
2019-05-29T22:55:27.099Z,95584.31
2019-05-29T22:57:55.991Z,95584.75
2019-05-29T23:00:24.974Z,95591.58
2019-05-29T23:02:54.042Z,95586.91
2019-05-29T23:05:22.742Z,95577.95
2019-05-29T23:07:52.028Z,95576.23
2019-05-29T23:10:21.090Z,95576.23
2019-05-29T23:12:49.621Z,95574.52
2019-05-29T23:15:18.245Z,95571.56
2019-05-29T23:17:46.786Z,95571.97
2019-05-29T23:20:15.686Z,95568.56
2019-05-29T23:22:44.299Z,95569.38
2019-05-29T23:25:12.929Z,95572.36
2019-05-29T23:27:41.506Z,95579.59
2019-05-29T23:30:10.805Z,95571.52
2019-05-29T23:32:39.414Z,95574.95
2019-05-29T23:35:08.815Z,95572.80
2019-05-29T23:37:37.458Z,95576.23
2019-05-29T23:40:08.790Z,95577.08
2019-05-29T23:42:37.432Z,95581.31
2019-05-29T23:45:09.470Z,95574.52
2019-05-29T23:47:38.004Z,95572.80
2019-05-29T23:50:09.844Z,95569.84
2019-05-29T23:52:38.766Z,95577.52
2019-05-29T23:55:09.308Z,95574.95
2019-05-29T23:57:40.236Z,95577.08
